sensor_id;sensor_type;location;lat;lon;timestamp;P1;durP1;ratioP1;P2;durP2;ratioP2
29196;SDS011;62796;42.654;23.316;2024-03-06T00:00:14;37.72;;;21.38;;
29196;SDS011;62796;42.654;23.316;2024-03-06T00:02:40;38.55;;;22.30;;
29196;SDS011;62796;42.654;23.316;2024-03-06T00:05:05;37.92;;;22.75;;
29196;SDS011;62796;42.654;23.316;2024-03-06T00:07:32;41.78;;;22.48;;
29196;SDS011;62796;42.654;23.316;2024-03-06T00:09:58;34.75;;;21.60;;
29196;SDS011;62796;42.654;23.316;2024-03-06T00:12:23;38.30;;;21.13;;
29196;SDS011;62796;42.654;23.316;2024-03-06T00:14:49;37.63;;;21.42;;
29196;SDS011;62796;42.654;23.316;2024-03-06T00:17:14;35.28;;;20.45;;
29196;SDS011;62796;42.654;23.316;2024-03-06T00:19:40;33.30;;;20.00;;
29196;SDS011;62796;42.654;23.316;2024-03-06T00:22:05;33.35;;;19.98;;
29196;SDS011;62796;42.654;23.316;2024-03-06T00:24:31;33.85;;;20.27;;
29196;SDS011;62796;42.654;23.316;2024-03-06T00:26:57;34.53;;;20.45;;
29196;SDS011;62796;42.654;23.316;2024-03-06T00:29:23;39.35;;;21.58;;
29196;SDS011;62796;42.654;23.316;2024-03-06T00:31:48;34.78;;;21.10;;
29196;SDS011;62796;42.654;23.316;2024-03-06T00:34:14;38.95;;;21.70;;
29196;SDS011;62796;42.654;23.316;2024-03-06T00:36:40;34.67;;;21.52;;
29196;SDS011;62796;42.654;23.316;2024-03-06T00:39:06;33.25;;;21.15;;
29196;SDS011;62796;42.654;23.316;2024-03-06T00:41:33;40.10;;;21.92;;
29196;SDS011;62796;42.654;23.316;2024-03-06T00:43:59;37.60;;;23.20;;
29196;SDS011;62796;42.654;23.316;2024-03-06T00:46:24;42.13;;;22.58;;
29196;SDS011;62796;42.654;23.316;2024-03-06T00:48:50;37.42;;;23.38;;
29196;SDS011;62796;42.654;23.316;2024-03-06T00:51:15;40.92;;;23.55;;
29196;SDS011;62796;42.654;23.316;2024-03-06T00:53:41;37.67;;;22.88;;
29196;SDS011;62796;42.654;23.316;2024-03-06T00:56:07;40.92;;;22.75;;
29196;SDS011;62796;42.654;23.316;2024-03-06T00:58:32;39.22;;;22.38;;
29196;SDS011;62796;42.654;23.316;2024-03-06T01:00:58;39.03;;;23.77;;
29196;SDS011;62796;42.654;23.316;2024-03-06T01:03:23;37.05;;;20.48;;
29196;SDS011;62796;42.654;23.316;2024-03-06T01:05:49;40.10;;;20.80;;
29196;SDS011;62796;42.654;23.316;2024-03-06T01:08:17;37.17;;;20.88;;
29196;SDS011;62796;42.654;23.316;2024-03-06T01:10:43;35.97;;;21.63;;
29196;SDS011;62796;42.654;23.316;2024-03-06T01:13:08;36.38;;;20.42;;
29196;SDS011;62796;42.654;23.316;2024-03-06T01:15:35;35.25;;;19.77;;
29196;SDS011;62796;42.654;23.316;2024-03-06T01:18:04;33.60;;;20.15;;
29196;SDS011;62796;42.654;23.316;2024-03-06T01:20:29;29.90;;;19.27;;
29196;SDS011;62796;42.654;23.316;2024-03-06T01:22:55;34.35;;;19.48;;
29196;SDS011;62796;42.654;23.316;2024-03-06T01:25:20;33.80;;;19.77;;
29196;SDS011;62796;42.654;23.316;2024-03-06T01:27:47;32.67;;;20.00;;
29196;SDS011;62796;42.654;23.316;2024-03-06T01:30:13;34.90;;;20.55;;
29196;SDS011;62796;42.654;23.316;2024-03-06T01:32:39;36.90;;;20.42;;
29196;SDS011;62796;42.654;23.316;2024-03-06T01:35:05;33.30;;;20.63;;
29196;SDS011;62796;42.654;23.316;2024-03-06T01:37:31;39.55;;;21.75;;
29196;SDS011;62796;42.654;23.316;2024-03-06T01:39:57;37.60;;;20.75;;
29196;SDS011;62796;42.654;23.316;2024-03-06T01:42:22;34.05;;;21.02;;
29196;SDS011;62796;42.654;23.316;2024-03-06T01:44:47;33.95;;;20.23;;
29196;SDS011;62796;42.654;23.316;2024-03-06T01:47:13;36.28;;;20.73;;
29196;SDS011;62796;42.654;23.316;2024-03-06T01:49:39;34.60;;;20.92;;
29196;SDS011;62796;42.654;23.316;2024-03-06T01:52:04;34.65;;;20.45;;
29196;SDS011;62796;42.654;23.316;2024-03-06T01:54:31;37.55;;;21.77;;
29196;SDS011;62796;42.654;23.316;2024-03-06T01:56:57;37.78;;;21.95;;
29196;SDS011;62796;42.654;23.316;2024-03-06T01:59:25;39.33;;;24.48;;
29196;SDS011;62796;42.654;23.316;2024-03-06T02:01:52;44.63;;;25.70;;
29196;SDS011;62796;42.654;23.316;2024-03-06T02:04:18;42.25;;;24.60;;
29196;SDS011;62796;42.654;23.316;2024-03-06T02:06:44;43.78;;;23.40;;
29196;SDS011;62796;42.654;23.316;2024-03-06T02:09:10;40.05;;;24.02;;
29196;SDS011;62796;42.654;23.316;2024-03-06T02:11:38;46.17;;;24.02;;
29196;SDS011;62796;42.654;23.316;2024-03-06T02:14:04;44.10;;;26.13;;
29196;SDS011;62796;42.654;23.316;2024-03-06T02:16:31;40.15;;;24.55;;
29196;SDS011;62796;42.654;23.316;2024-03-06T02:18:57;42.28;;;24.33;;
29196;SDS011;62796;42.654;23.316;2024-03-06T02:21:23;42.20;;;25.00;;
29196;SDS011;62796;42.654;23.316;2024-03-06T02:23:49;40.17;;;24.13;;
29196;SDS011;62796;42.654;23.316;2024-03-06T02:26:19;42.55;;;25.40;;
29196;SDS011;62796;42.654;23.316;2024-03-06T02:28:46;40.05;;;25.17;;
29196;SDS011;62796;42.654;23.316;2024-03-06T02:31:12;42.10;;;25.45;;
29196;SDS011;62796;42.654;23.316;2024-03-06T02:33:38;41.95;;;24.75;;
29196;SDS011;62796;42.654;23.316;2024-03-06T02:36:04;43.20;;;25.65;;
29196;SDS011;62796;42.654;23.316;2024-03-06T02:38:30;40.53;;;24.80;;
29196;SDS011;62796;42.654;23.316;2024-03-06T02:40:56;39.63;;;23.85;;
29196;SDS011;62796;42.654;23.316;2024-03-06T02:43:21;40.10;;;23.05;;
29196;SDS011;62796;42.654;23.316;2024-03-06T02:45:46;36.00;;;22.05;;
29196;SDS011;62796;42.654;23.316;2024-03-06T02:48:12;39.92;;;22.75;;
29196;SDS011;62796;42.654;23.316;2024-03-06T02:50:37;39.22;;;23.20;;
29196;SDS011;62796;42.654;23.316;2024-03-06T02:53:03;38.67;;;23.25;;
29196;SDS011;62796;42.654;23.316;2024-03-06T02:55:28;39.58;;;22.73;;
29196;SDS011;62796;42.654;23.316;2024-03-06T02:57:54;34.92;;;22.25;;
29196;SDS011;62796;42.654;23.316;2024-03-06T03:00:19;40.67;;;24.23;;
29196;SDS011;62796;42.654;23.316;2024-03-06T03:02:45;36.67;;;20.73;;
29196;SDS011;62796;42.654;23.316;2024-03-06T03:05:10;36.88;;;21.40;;
29196;SDS011;62796;42.654;23.316;2024-03-06T03:07:36;34.97;;;20.13;;
29196;SDS011;62796;42.654;23.316;2024-03-06T03:10:01;32.92;;;20.27;;
29196;SDS011;62796;42.654;23.316;2024-03-06T03:12:27;37.00;;;20.15;;
29196;SDS011;62796;42.654;23.316;2024-03-06T03:14:52;39.63;;;20.13;;
29196;SDS011;62796;42.654;23.316;2024-03-06T03:17:18;38.10;;;22.77;;
29196;SDS011;62796;42.654;23.316;2024-03-06T03:19:44;39.65;;;22.00;;
29196;SDS011;62796;42.654;23.316;2024-03-06T03:22:10;35.25;;;21.52;;
29196;SDS011;62796;42.654;23.316;2024-03-06T03:24:35;38.05;;;21.55;;
29196;SDS011;62796;42.654;23.316;2024-03-06T03:27:02;35.60;;;20.90;;
29196;SDS011;62796;42.654;23.316;2024-03-06T03:29:27;35.08;;;21.10;;
29196;SDS011;62796;42.654;23.316;2024-03-06T03:31:53;38.20;;;21.10;;
29196;SDS011;62796;42.654;23.316;2024-03-06T03:34:18;39.88;;;21.60;;
29196;SDS011;62796;42.654;23.316;2024-03-06T03:36:46;38.30;;;22.92;;
29196;SDS011;62796;42.654;23.316;2024-03-06T03:39:12;36.10;;;21.40;;
29196;SDS011;62796;42.654;23.316;2024-03-06T03:41:46;36.72;;;22.42;;
29196;SDS011;62796;42.654;23.316;2024-03-06T03:44:13;38.30;;;21.88;;
29196;SDS011;62796;42.654;23.316;2024-03-06T03:46:39;35.42;;;21.60;;
29196;SDS011;62796;42.654;23.316;2024-03-06T03:49:05;36.78;;;21.08;;
29196;SDS011;62796;42.654;23.316;2024-03-06T03:51:30;41.53;;;23.73;;
29196;SDS011;62796;42.654;23.316;2024-03-06T03:53:56;43.72;;;22.98;;
29196;SDS011;62796;42.654;23.316;2024-03-06T03:56:21;42.85;;;21.55;;
29196;SDS011;62796;42.654;23.316;2024-03-06T03:58:47;34.08;;;20.35;;
29196;SDS011;62796;42.654;23.316;2024-03-06T04:01:12;38.58;;;21.42;;
29196;SDS011;62796;42.654;23.316;2024-03-06T04:03:38;40.65;;;22.77;;
29196;SDS011;62796;42.654;23.316;2024-03-06T04:06:03;46.88;;;22.02;;
29196;SDS011;62796;42.654;23.316;2024-03-06T04:08:29;43.80;;;22.02;;
29196;SDS011;62796;42.654;23.316;2024-03-06T04:10:54;38.42;;;22.50;;
29196;SDS011;62796;42.654;23.316;2024-03-06T04:13:19;43.30;;;23.25;;
29196;SDS011;62796;42.654;23.316;2024-03-06T04:15:45;37.05;;;21.67;;
29196;SDS011;62796;42.654;23.316;2024-03-06T04:18:11;34.67;;;20.45;;
29196;SDS011;62796;42.654;23.316;2024-03-06T04:20:37;39.80;;;22.48;;
29196;SDS011;62796;42.654;23.316;2024-03-06T04:23:02;37.22;;;22.42;;
29196;SDS011;62796;42.654;23.316;2024-03-06T04:25:28;37.92;;;22.52;;
29196;SDS011;62796;42.654;23.316;2024-03-06T04:27:53;36.38;;;21.05;;
29196;SDS011;62796;42.654;23.316;2024-03-06T04:30:19;37.53;;;21.45;;
29196;SDS011;62796;42.654;23.316;2024-03-06T04:32:44;32.47;;;20.83;;
29196;SDS011;62796;42.654;23.316;2024-03-06T04:35:09;38.08;;;21.30;;
29196;SDS011;62796;42.654;23.316;2024-03-06T04:37:35;39.30;;;21.45;;
29196;SDS011;62796;42.654;23.316;2024-03-06T04:40:01;41.53;;;23.65;;
29196;SDS011;62796;42.654;23.316;2024-03-06T04:42:28;44.90;;;24.33;;
29196;SDS011;62796;42.654;23.316;2024-03-06T04:44:53;46.78;;;25.13;;
29196;SDS011;62796;42.654;23.316;2024-03-06T04:47:19;47.58;;;25.35;;
29196;SDS011;62796;42.654;23.316;2024-03-06T04:49:44;42.80;;;25.83;;
29196;SDS011;62796;42.654;23.316;2024-03-06T04:52:09;60.40;;;25.40;;
29196;SDS011;62796;42.654;23.316;2024-03-06T04:54:35;52.80;;;25.80;;
29196;SDS011;62796;42.654;23.316;2024-03-06T04:57:00;47.45;;;26.30;;
29196;SDS011;62796;42.654;23.316;2024-03-06T04:59:26;49.22;;;25.10;;
29196;SDS011;62796;42.654;23.316;2024-03-06T05:01:52;43.95;;;24.00;;
29196;SDS011;62796;42.654;23.316;2024-03-06T05:04:17;39.63;;;22.30;;
29196;SDS011;62796;42.654;23.316;2024-03-06T05:06:43;45.92;;;22.30;;
29196;SDS011;62796;42.654;23.316;2024-03-06T05:09:08;38.17;;;21.60;;
29196;SDS011;62796;42.654;23.316;2024-03-06T05:11:37;38.42;;;20.40;;
29196;SDS011;62796;42.654;23.316;2024-03-06T05:14:04;42.53;;;20.60;;
29196;SDS011;62796;42.654;23.316;2024-03-06T05:16:29;37.88;;;21.15;;
29196;SDS011;62796;42.654;23.316;2024-03-06T05:18:54;40.65;;;21.83;;
29196;SDS011;62796;42.654;23.316;2024-03-06T05:21:20;43.70;;;23.25;;
29196;SDS011;62796;42.654;23.316;2024-03-06T05:23:47;41.95;;;21.75;;
29196;SDS011;62796;42.654;23.316;2024-03-06T05:26:14;45.50;;;20.90;;
29196;SDS011;62796;42.654;23.316;2024-03-06T05:28:40;37.17;;;22.02;;
29196;SDS011;62796;42.654;23.316;2024-03-06T05:31:15;44.78;;;22.55;;
29196;SDS011;62796;42.654;23.316;2024-03-06T05:33:44;53.28;;;23.88;;
29196;SDS011;62796;42.654;23.316;2024-03-06T05:36:11;60.38;;;26.33;;
29196;SDS011;62796;42.654;23.316;2024-03-06T05:38:38;50.33;;;23.50;;
29196;SDS011;62796;42.654;23.316;2024-03-06T05:41:04;47.67;;;23.15;;
29196;SDS011;62796;42.654;23.316;2024-03-06T05:43:29;50.65;;;24.10;;
29196;SDS011;62796;42.654;23.316;2024-03-06T05:45:54;41.30;;;22.90;;
29196;SDS011;62796;42.654;23.316;2024-03-06T05:48:20;40.10;;;22.67;;
29196;SDS011;62796;42.654;23.316;2024-03-06T05:50:45;43.25;;;22.83;;
29196;SDS011;62796;42.654;23.316;2024-03-06T05:53:11;36.72;;;22.85;;
29196;SDS011;62796;42.654;23.316;2024-03-06T05:55:36;41.88;;;22.88;;
29196;SDS011;62796;42.654;23.316;2024-03-06T05:58:02;45.08;;;22.75;;
29196;SDS011;62796;42.654;23.316;2024-03-06T06:00:27;53.30;;;23.75;;
29196;SDS011;62796;42.654;23.316;2024-03-06T06:02:53;43.83;;;24.27;;
29196;SDS011;62796;42.654;23.316;2024-03-06T06:05:18;42.92;;;22.85;;
29196;SDS011;62796;42.654;23.316;2024-03-06T06:07:45;42.60;;;25.85;;
29196;SDS011;62796;42.654;23.316;2024-03-06T06:10:10;51.50;;;25.67;;
29196;SDS011;62796;42.654;23.316;2024-03-06T06:12:36;44.58;;;26.45;;
29196;SDS011;62796;42.654;23.316;2024-03-06T06:15:01;48.38;;;26.60;;
29196;SDS011;62796;42.654;23.316;2024-03-06T06:17:27;50.92;;;26.38;;
29196;SDS011;62796;42.654;23.316;2024-03-06T06:19:53;43.72;;;24.50;;
29196;SDS011;62796;42.654;23.316;2024-03-06T06:22:18;56.38;;;25.48;;
29196;SDS011;62796;42.654;23.316;2024-03-06T06:24:43;53.25;;;25.63;;
29196;SDS011;62796;42.654;23.316;2024-03-06T06:27:10;52.80;;;25.10;;
29196;SDS011;62796;42.654;23.316;2024-03-06T06:29:36;51.00;;;26.52;;
29196;SDS011;62796;42.654;23.316;2024-03-06T06:32:01;41.10;;;24.27;;
29196;SDS011;62796;42.654;23.316;2024-03-06T06:34:26;44.00;;;25.75;;
29196;SDS011;62796;42.654;23.316;2024-03-06T06:36:53;49.10;;;26.15;;
29196;SDS011;62796;42.654;23.316;2024-03-06T06:39:18;46.70;;;25.20;;
29196;SDS011;62796;42.654;23.316;2024-03-06T06:41:44;43.88;;;26.08;;
29196;SDS011;62796;42.654;23.316;2024-03-06T06:44:09;45.78;;;26.25;;
29196;SDS011;62796;42.654;23.316;2024-03-06T06:46:35;46.85;;;26.88;;
29196;SDS011;62796;42.654;23.316;2024-03-06T06:49:00;45.53;;;27.15;;
29196;SDS011;62796;42.654;23.316;2024-03-06T06:51:25;48.53;;;28.27;;
29196;SDS011;62796;42.654;23.316;2024-03-06T06:53:51;51.70;;;27.52;;
29196;SDS011;62796;42.654;23.316;2024-03-06T06:56:16;47.17;;;27.88;;
29196;SDS011;62796;42.654;23.316;2024-03-06T06:58:42;47.67;;;26.73;;
29196;SDS011;62796;42.654;23.316;2024-03-06T07:01:08;41.10;;;25.52;;
29196;SDS011;62796;42.654;23.316;2024-03-06T07:03:34;42.85;;;25.55;;
29196;SDS011;62796;42.654;23.316;2024-03-06T07:06:00;48.72;;;25.77;;
29196;SDS011;62796;42.654;23.316;2024-03-06T07:08:25;43.38;;;25.70;;
29196;SDS011;62796;42.654;23.316;2024-03-06T07:10:51;49.17;;;25.30;;
29196;SDS011;62796;42.654;23.316;2024-03-06T07:13:19;47.00;;;26.55;;
29196;SDS011;62796;42.654;23.316;2024-03-06T07:15:45;39.65;;;25.05;;
29196;SDS011;62796;42.654;23.316;2024-03-06T07:18:10;50.30;;;24.52;;
29196;SDS011;62796;42.654;23.316;2024-03-06T07:20:36;45.13;;;25.30;;
29196;SDS011;62796;42.654;23.316;2024-03-06T07:23:01;45.22;;;25.13;;
29196;SDS011;62796;42.654;23.316;2024-03-06T07:25:26;47.75;;;26.00;;
29196;SDS011;62796;42.654;23.316;2024-03-06T07:27:52;50.97;;;28.40;;
29196;SDS011;62796;42.654;23.316;2024-03-06T07:30:17;58.95;;;30.02;;
29196;SDS011;62796;42.654;23.316;2024-03-06T07:32:43;59.88;;;29.77;;
29196;SDS011;62796;42.654;23.316;2024-03-06T07:35:08;62.30;;;30.90;;
29196;SDS011;62796;42.654;23.316;2024-03-06T07:37:34;61.47;;;31.35;;
29196;SDS011;62796;42.654;23.316;2024-03-06T07:39:59;57.97;;;29.60;;
29196;SDS011;62796;42.654;23.316;2024-03-06T07:42:25;59.63;;;28.23;;
29196;SDS011;62796;42.654;23.316;2024-03-06T07:44:51;48.53;;;25.38;;
29196;SDS011;62796;42.654;23.316;2024-03-06T07:47:16;41.72;;;24.73;;
29196;SDS011;62796;42.654;23.316;2024-03-06T07:49:42;46.17;;;26.05;;
29196;SDS011;62796;42.654;23.316;2024-03-06T07:52:09;45.67;;;26.65;;
29196;SDS011;62796;42.654;23.316;2024-03-06T07:54:35;49.85;;;24.88;;
29196;SDS011;62796;42.654;23.316;2024-03-06T07:57:01;46.33;;;26.00;;
29196;SDS011;62796;42.654;23.316;2024-03-06T07:59:26;51.45;;;25.13;;
29196;SDS011;62796;42.654;23.316;2024-03-06T08:01:52;43.70;;;24.88;;
29196;SDS011;62796;42.654;23.316;2024-03-06T08:04:17;44.63;;;24.92;;
29196;SDS011;62796;42.654;23.316;2024-03-06T08:06:43;44.08;;;25.42;;
29196;SDS011;62796;42.654;23.316;2024-03-06T08:09:08;44.60;;;25.48;;
29196;SDS011;62796;42.654;23.316;2024-03-06T08:11:34;44.72;;;26.73;;
29196;SDS011;62796;42.654;23.316;2024-03-06T08:14:00;44.13;;;24.70;;
29196;SDS011;62796;42.654;23.316;2024-03-06T08:16:27;36.90;;;25.23;;
29196;SDS011;62796;42.654;23.316;2024-03-06T08:18:53;39.53;;;24.73;;
29196;SDS011;62796;42.654;23.316;2024-03-06T08:21:20;38.63;;;23.23;;
29196;SDS011;62796;42.654;23.316;2024-03-06T08:23:45;40.65;;;24.95;;
29196;SDS011;62796;42.654;23.316;2024-03-06T08:26:12;49.20;;;24.80;;
29196;SDS011;62796;42.654;23.316;2024-03-06T08:28:38;45.35;;;25.75;;
29196;SDS011;62796;42.654;23.316;2024-03-06T08:31:03;38.10;;;24.23;;
29196;SDS011;62796;42.654;23.316;2024-03-06T08:33:29;38.47;;;23.85;;
29196;SDS011;62796;42.654;23.316;2024-03-06T08:35:54;37.95;;;23.35;;
29196;SDS011;62796;42.654;23.316;2024-03-06T08:38:19;35.00;;;23.33;;
29196;SDS011;62796;42.654;23.316;2024-03-06T08:40:45;42.05;;;25.13;;
29196;SDS011;62796;42.654;23.316;2024-03-06T08:43:11;47.15;;;23.98;;
29196;SDS011;62796;42.654;23.316;2024-03-06T08:45:40;42.60;;;26.92;;
29196;SDS011;62796;42.654;23.316;2024-03-06T08:48:06;44.38;;;26.27;;
29196;SDS011;62796;42.654;23.316;2024-03-06T08:50:32;45.15;;;27.65;;
29196;SDS011;62796;42.654;23.316;2024-03-06T08:52:58;46.17;;;27.83;;
29196;SDS011;62796;42.654;23.316;2024-03-06T08:55:23;36.92;;;25.80;;
29196;SDS011;62796;42.654;23.316;2024-03-06T08:57:49;44.63;;;26.58;;
29196;SDS011;62796;42.654;23.316;2024-03-06T09:00:15;47.42;;;27.10;;
29196;SDS011;62796;42.654;23.316;2024-03-06T09:02:42;43.53;;;27.67;;
29196;SDS011;62796;42.654;23.316;2024-03-06T09:05:08;46.13;;;25.85;;
29196;SDS011;62796;42.654;23.316;2024-03-06T09:07:35;44.03;;;26.80;;
29196;SDS011;62796;42.654;23.316;2024-03-06T09:10:12;39.72;;;24.58;;
29196;SDS011;62796;42.654;23.316;2024-03-06T09:12:38;39.92;;;25.48;;
29196;SDS011;62796;42.654;23.316;2024-03-06T09:15:04;38.42;;;24.35;;
29196;SDS011;62796;42.654;23.316;2024-03-06T09:17:32;36.97;;;23.70;;
29196;SDS011;62796;42.654;23.316;2024-03-06T09:19:57;37.55;;;24.38;;
29196;SDS011;62796;42.654;23.316;2024-03-06T09:22:23;32.90;;;21.15;;
29196;SDS011;62796;42.654;23.316;2024-03-06T09:24:49;39.63;;;22.75;;
29196;SDS011;62796;42.654;23.316;2024-03-06T09:27:15;40.78;;;22.08;;
29196;SDS011;62796;42.654;23.316;2024-03-06T09:29:41;37.05;;;22.75;;
29196;SDS011;62796;42.654;23.316;2024-03-06T09:32:07;35.13;;;21.67;;
29196;SDS011;62796;42.654;23.316;2024-03-06T09:34:33;30.60;;;19.80;;
29196;SDS011;62796;42.654;23.316;2024-03-06T09:36:58;29.85;;;19.67;;
29196;SDS011;62796;42.654;23.316;2024-03-06T09:39:24;29.08;;;18.65;;
29196;SDS011;62796;42.654;23.316;2024-03-06T09:41:50;31.23;;;18.60;;
29196;SDS011;62796;42.654;23.316;2024-03-06T09:44:16;27.70;;;18.30;;
29196;SDS011;62796;42.654;23.316;2024-03-06T09:46:43;26.60;;;17.63;;
29196;SDS011;62796;42.654;23.316;2024-03-06T09:49:10;27.58;;;17.50;;
29196;SDS011;62796;42.654;23.316;2024-03-06T09:51:37;33.30;;;17.73;;
29196;SDS011;62796;42.654;23.316;2024-03-06T09:54:05;26.90;;;16.40;;
29196;SDS011;62796;42.654;23.316;2024-03-06T09:56:32;34.35;;;17.48;;
29196;SDS011;62796;42.654;23.316;2024-03-06T09:58:58;35.20;;;18.95;;
29196;SDS011;62796;42.654;23.316;2024-03-06T10:01:24;28.30;;;16.05;;
29196;SDS011;62796;42.654;23.316;2024-03-06T10:03:51;33.20;;;17.00;;
29196;SDS011;62796;42.654;23.316;2024-03-06T10:06:16;32.63;;;17.27;;
29196;SDS011;62796;42.654;23.316;2024-03-06T10:08:42;33.53;;;17.77;;
29196;SDS011;62796;42.654;23.316;2024-03-06T10:11:10;30.95;;;16.52;;
29196;SDS011;62796;42.654;23.316;2024-03-06T10:13:36;27.88;;;15.77;;
29196;SDS011;62796;42.654;23.316;2024-03-06T10:16:03;21.85;;;12.27;;
29196;SDS011;62796;42.654;23.316;2024-03-06T10:18:33;22.73;;;15.00;;
29196;SDS011;62796;42.654;23.316;2024-03-06T10:20:59;30.33;;;17.30;;
29196;SDS011;62796;42.654;23.316;2024-03-06T10:23:25;29.00;;;17.08;;
29196;SDS011;62796;42.654;23.316;2024-03-06T10:25:54;26.50;;;16.65;;
29196;SDS011;62796;42.654;23.316;2024-03-06T10:28:20;24.92;;;15.90;;
29196;SDS011;62796;42.654;23.316;2024-03-06T10:30:47;34.05;;;17.88;;
29196;SDS011;62796;42.654;23.316;2024-03-06T10:33:14;25.35;;;16.48;;
29196;SDS011;62796;42.654;23.316;2024-03-06T10:35:41;29.10;;;15.50;;
29196;SDS011;62796;42.654;23.316;2024-03-06T10:38:10;26.55;;;16.23;;
29196;SDS011;62796;42.654;23.316;2024-03-06T10:40:40;28.42;;;16.02;;
29196;SDS011;62796;42.654;23.316;2024-03-06T10:43:07;22.98;;;14.65;;
29196;SDS011;62796;42.654;23.316;2024-03-06T10:48:15;24.38;;;15.65;;
29196;SDS011;62796;42.654;23.316;2024-03-06T10:50:44;30.83;;;15.27;;
29196;SDS011;62796;42.654;23.316;2024-03-06T10:53:11;27.00;;;14.15;;
29196;SDS011;62796;42.654;23.316;2024-03-06T10:55:38;25.63;;;14.00;;
29196;SDS011;62796;42.654;23.316;2024-03-06T10:58:07;21.90;;;11.82;;
29196;SDS011;62796;42.654;23.316;2024-03-06T11:00:34;23.30;;;12.52;;
29196;SDS011;62796;42.654;23.316;2024-03-06T11:03:05;18.02;;;12.13;;
29196;SDS011;62796;42.654;23.316;2024-03-06T11:05:46;16.50;;;10.98;;
29196;SDS011;62796;42.654;23.316;2024-03-06T11:08:16;14.57;;;10.48;;
29196;SDS011;62796;42.654;23.316;2024-03-06T11:10:42;15.02;;;9.40;;
29196;SDS011;62796;42.654;23.316;2024-03-06T11:13:30;15.93;;;9.63;;
29196;SDS011;62796;42.654;23.316;2024-03-06T11:15:58;27.92;;;11.95;;
29196;SDS011;62796;42.654;23.316;2024-03-06T11:20:59;26.27;;;11.20;;
29196;SDS011;62796;42.654;23.316;2024-03-06T11:23:27;17.50;;;10.38;;
29196;SDS011;62796;42.654;23.316;2024-03-06T11:28:27;15.32;;;9.77;;
29196;SDS011;62796;42.654;23.316;2024-03-06T11:33:19;11.85;;;8.20;;
29196;SDS011;62796;42.654;23.316;2024-03-06T11:38:55;12.35;;;8.60;;
29196;SDS011;62796;42.654;23.316;2024-03-06T11:41:29;12.18;;;9.27;;
29196;SDS011;62796;42.654;23.316;2024-03-06T11:43:56;13.60;;;9.07;;
29196;SDS011;62796;42.654;23.316;2024-03-06T11:49:22;11.52;;;8.85;;
29196;SDS011;62796;42.654;23.316;2024-03-06T11:51:50;14.32;;;9.10;;
29196;SDS011;62796;42.654;23.316;2024-03-06T11:54:17;17.00;;;9.02;;
29196;SDS011;62796;42.654;23.316;2024-03-06T11:56:51;15.25;;;7.80;;
29196;SDS011;62796;42.654;23.316;2024-03-06T11:59:20;16.83;;;8.88;;
29196;SDS011;62796;42.654;23.316;2024-03-06T12:01:47;11.85;;;8.23;;
29196;SDS011;62796;42.654;23.316;2024-03-06T12:04:13;17.33;;;9.05;;
29196;SDS011;62796;42.654;23.316;2024-03-06T12:06:38;18.77;;;9.00;;
29196;SDS011;62796;42.654;23.316;2024-03-06T12:09:04;11.60;;;9.13;;
29196;SDS011;62796;42.654;23.316;2024-03-06T12:11:29;15.20;;;9.18;;
29196;SDS011;62796;42.654;23.316;2024-03-06T12:13:56;22.33;;;10.40;;
29196;SDS011;62796;42.654;23.316;2024-03-06T12:16:22;26.55;;;11.35;;
29196;SDS011;62796;42.654;23.316;2024-03-06T12:18:54;14.93;;;9.38;;
29196;SDS011;62796;42.654;23.316;2024-03-06T12:21:23;23.50;;;10.50;;
29196;SDS011;62796;42.654;23.316;2024-03-06T12:24:01;18.02;;;10.43;;
29196;SDS011;62796;42.654;23.316;2024-03-06T12:26:28;19.35;;;9.50;;
29196;SDS011;62796;42.654;23.316;2024-03-06T12:28:53;16.75;;;9.77;;
29196;SDS011;62796;42.654;23.316;2024-03-06T12:31:29;17.30;;;9.25;;
29196;SDS011;62796;42.654;23.316;2024-03-06T12:33:58;16.90;;;9.27;;
29196;SDS011;62796;42.654;23.316;2024-03-06T12:36:27;13.68;;;9.25;;
29196;SDS011;62796;42.654;23.316;2024-03-06T12:38:55;20.90;;;9.02;;
29196;SDS011;62796;42.654;23.316;2024-03-06T12:41:21;17.95;;;9.55;;
29196;SDS011;62796;42.654;23.316;2024-03-06T12:43:47;13.68;;;8.68;;
29196;SDS011;62796;42.654;23.316;2024-03-06T12:46:12;13.65;;;9.00;;
29196;SDS011;62796;42.654;23.316;2024-03-06T12:48:38;14.30;;;9.00;;
29196;SDS011;62796;42.654;23.316;2024-03-06T12:51:03;19.52;;;8.55;;
29196;SDS011;62796;42.654;23.316;2024-03-06T12:53:32;23.35;;;8.68;;
29196;SDS011;62796;42.654;23.316;2024-03-06T12:56:00;15.60;;;7.63;;
29196;SDS011;62796;42.654;23.316;2024-03-06T12:58:26;14.27;;;7.25;;
29196;SDS011;62796;42.654;23.316;2024-03-06T13:00:52;8.60;;;6.57;;
29196;SDS011;62796;42.654;23.316;2024-03-06T13:03:19;15.77;;;7.50;;
29196;SDS011;62796;42.654;23.316;2024-03-06T13:05:44;13.93;;;7.90;;
29196;SDS011;62796;42.654;23.316;2024-03-06T13:08:11;14.40;;;8.20;;
29196;SDS011;62796;42.654;23.316;2024-03-06T13:10:39;17.92;;;8.60;;
29196;SDS011;62796;42.654;23.316;2024-03-06T13:13:05;16.85;;;7.93;;
29196;SDS011;62796;42.654;23.316;2024-03-06T13:15:32;10.73;;;7.55;;
29196;SDS011;62796;42.654;23.316;2024-03-06T13:17:59;14.27;;;7.68;;
29196;SDS011;62796;42.654;23.316;2024-03-06T13:20:30;13.55;;;7.55;;
29196;SDS011;62796;42.654;23.316;2024-03-06T13:22:56;10.77;;;7.40;;
29196;SDS011;62796;42.654;23.316;2024-03-06T13:25:21;14.57;;;7.43;;
29196;SDS011;62796;42.654;23.316;2024-03-06T13:27:47;20.80;;;8.48;;
29196;SDS011;62796;42.654;23.316;2024-03-06T13:30:13;17.77;;;8.40;;
29196;SDS011;62796;42.654;23.316;2024-03-06T13:32:38;15.80;;;7.20;;
29196;SDS011;62796;42.654;23.316;2024-03-06T13:35:04;11.63;;;7.25;;
29196;SDS011;62796;42.654;23.316;2024-03-06T13:37:41;13.55;;;6.03;;
29196;SDS011;62796;42.654;23.316;2024-03-06T13:40:10;15.55;;;6.68;;
29196;SDS011;62796;42.654;23.316;2024-03-06T13:42:38;10.18;;;5.60;;
29196;SDS011;62796;42.654;23.316;2024-03-06T13:45:05;9.70;;;5.93;;
29196;SDS011;62796;42.654;23.316;2024-03-06T13:47:36;15.18;;;5.68;;
29196;SDS011;62796;42.654;23.316;2024-03-06T13:50:04;8.40;;;6.05;;
29196;SDS011;62796;42.654;23.316;2024-03-06T13:52:33;9.70;;;6.68;;
29196;SDS011;62796;42.654;23.316;2024-03-06T13:54:59;12.55;;;6.55;;
29196;SDS011;62796;42.654;23.316;2024-03-06T13:57:27;10.70;;;6.22;;
29196;SDS011;62796;42.654;23.316;2024-03-06T13:59:53;7.93;;;5.38;;
29196;SDS011;62796;42.654;23.316;2024-03-06T14:02:19;14.55;;;6.22;;
29196;SDS011;62796;42.654;23.316;2024-03-06T14:04:44;11.85;;;6.47;;
29196;SDS011;62796;42.654;23.316;2024-03-06T14:07:10;13.80;;;6.72;;
29196;SDS011;62796;42.654;23.316;2024-03-06T14:09:35;14.65;;;6.43;;
29196;SDS011;62796;42.654;23.316;2024-03-06T14:12:01;13.32;;;6.72;;
29196;SDS011;62796;42.654;23.316;2024-03-06T14:14:27;12.75;;;6.32;;
29196;SDS011;62796;42.654;23.316;2024-03-06T14:16:52;10.57;;;6.65;;
29196;SDS011;62796;42.654;23.316;2024-03-06T14:19:18;13.85;;;7.18;;
29196;SDS011;62796;42.654;23.316;2024-03-06T14:21:43;8.65;;;6.57;;